Time;durP1;ratioP1;P1;durP2;ratioP2;P2;SDS_P1;SDS_P2;PMS_P1;PMS_P2;Temp;Humidity;BMP_temperature;BMP_pressure;BME280_temperature;BME280_humidity;BME280_pressure;Samples;Min_cycle;Max_cycle;Signal;HPM_P1;HPM_P2
2022/05/16 00:00:55;;;;;;;3.88;2.00;;;19.00;96.70;;;;;;5053125;28;20044;-87
2022/05/16 00:03:24;;;;;;;6.75;2.45;;;19.00;96.70;;;;;;5049667;28;20048;-89
2022/05/16 00:05:52;;;;;;;4.65;2.65;;;18.80;96.70;;;;;;5054324;28;20051;-87
2022/05/16 00:08:22;;;;;;;6.90;2.38;;;18.70;96.70;;;;;;5048464;28;20056;-88
2022/05/16 00:10:50;;;;;;;4.60;2.53;;;18.60;96.70;;;;;;5064305;28;20137;-88
2022/05/16 00:13:20;;;;;;;5.72;2.10;;;18.50;96.70;;;;;;5061515;28;20044;-89
2022/05/16 00:15:49;;;;;;;4.00;1.90;;;18.60;96.70;;;;;;5060907;28;20565;-88
2022/05/16 00:18:17;;;;;;;4.57;2.10;;;18.60;96.70;;;;;;5064826;28;20041;-87
2022/05/16 00:20:46;;;;;;;4.68;2.40;;;18.50;96.70;;;;;;5064128;28;20556;-89
2022/05/16 00:23:14;;;;;;;4.65;2.40;;;18.60;96.70;;;;;;5048835;28;20072;-86
2022/05/16 00:25:44;;;;;;;4.50;2.10;;;18.50;96.70;;;;;;5039360;28;20071;-87
2022/05/16 00:28:12;;;;;;;6.25;1.90;;;18.40;96.70;;;;;;5066281;28;20068;-88
2022/05/16 00:30:40;;;;;;;4.60;2.20;;;18.40;96.70;;;;;;5043408;28;20139;-88
2022/05/16 00:33:08;;;;;;;6.47;2.13;;;18.30;96.70;;;;;;5063989;28;20152;-88
2022/05/16 00:35:37;;;;;;;4.53;1.98;;;18.30;96.70;;;;;;5064990;28;20040;-89
2022/05/16 00:38:05;;;;;;;5.85;2.60;;;18.20;96.70;;;;;;5041002;28;20155;-87
2022/05/16 00:40:34;;;;;;;6.82;2.13;;;18.30;96.70;;;;;;5065987;28;20127;-87
2022/05/16 00:43:05;;;;;;;6.05;2.40;;;18.20;96.70;;;;;;5067545;28;20048;-88
2022/05/16 00:45:35;;;;;;;7.00;2.47;;;18.20;96.70;;;;;;5046796;28;20055;-88
2022/05/16 00:48:04;;;;;;;4.72;2.53;;;18.20;96.70;;;;;;5057258;28;20161;-89
2022/05/16 00:50:39;;;;;;;4.05;2.22;;;18.20;96.70;;;;;;5053464;28;20053;-88
2022/05/16 00:53:09;;;;;;;4.18;2.40;;;18.10;96.70;;;;;;5065650;28;20060;-88
2022/05/16 00:55:38;;;;;;;3.60;2.15;;;18.10;96.70;;;;;;5056392;28;20053;-88
2022/05/16 00:58:13;;;;;;;3.30;2.00;;;18.20;96.70;;;;;;5069214;28;20051;-89
2022/05/16 01:00:43;;;;;;;5.38;1.80;;;18.30;96.70;;;;;;5064151;28;20040;-88
2022/05/16 01:06:02;;;;;;;7.43;2.08;;;17.90;96.70;;;;;;5064089;28;20079;-88
2022/05/16 01:08:33;;;;;;;2.85;1.80;;;17.80;96.70;;;;;;5068148;28;20555;-88
2022/05/16 01:11:05;;;;;;;4.18;2.05;;;17.70;96.70;;;;;;5063124;28;20037;-88
2022/05/16 01:13:35;;;;;;;4.18;2.42;;;17.80;96.70;;;;;;5057340;28;20832;-89
2022/05/16 01:16:04;;;;;;;4.20;2.15;;;17.90;96.70;;;;;;5066196;28;20053;-89
2022/05/16 01:18:33;;;;;;;4.50;2.13;;;17.80;96.70;;;;;;5069574;28;20041;-88
2022/05/16 01:21:26;;;;;;;4.20;2.33;;;17.80;96.70;;;;;;5058531;28;20044;-89
2022/05/16 01:24:00;;;;;;;3.42;2.30;;;17.80;96.70;;;;;;5041620;28;20118;-89
2022/05/16 01:26:32;;;;;;;3.80;2.28;;;17.70;96.70;;;;;;5057401;28;20051;-89
2022/05/16 01:29:01;;;;;;;3.75;2.10;;;17.70;96.70;;;;;;5064761;28;20048;-89
2022/05/16 01:31:29;;;;;;;4.22;2.28;;;17.70;96.70;;;;;;5051734;28;20498;-88
2022/05/16 01:33:58;;;;;;;5.80;2.47;;;17.70;96.70;;;;;;5052267;28;20052;-87
2022/05/16 01:36:26;;;;;;;4.40;2.20;;;17.70;96.70;;;;;;5047398;28;20114;-89
2022/05/16 01:39:01;;;;;;;4.38;2.40;;;17.60;96.70;;;;;;5047880;28;20091;-87
2022/05/16 01:41:29;;;;;;;3.90;2.03;;;17.60;96.70;;;;;;5067337;28;20057;-88
2022/05/16 01:44:00;;;;;;;3.60;2.22;;;17.50;96.70;;;;;;5056710;28;20257;-88
2022/05/16 01:46:32;;;;;;;6.38;2.92;;;17.40;96.70;;;;;;5067250;28;20121;-88
2022/05/16 01:49:02;;;;;;;4.43;2.08;;;17.30;96.70;;;;;;5061619;28;20049;-87
2022/05/16 01:51:31;;;;;;;3.42;1.85;;;17.40;96.70;;;;;;5064714;28;20044;-88
2022/05/16 01:54:03;;;;;;;5.82;2.10;;;17.40;96.70;;;;;;5068958;28;20066;-88
2022/05/16 01:56:32;;;;;;;3.92;1.95;;;17.40;96.70;;;;;;5065236;28;20047;-88
2022/05/16 01:59:04;;;;;;;8.93;2.30;;;17.30;96.70;;;;;;5060826;28;20048;-88
2022/05/16 02:01:33;;;;;;;4.60;2.40;;;17.30;96.70;;;;;;5067039;28;20041;-88
2022/05/16 02:04:01;;;;;;;4.30;1.80;;;17.30;96.70;;;;;;5058851;28;20060;-88
2022/05/16 02:06:31;;;;;;;4.78;2.08;;;17.40;96.70;;;;;;5062354;28;20049;-88
2022/05/16 02:09:01;;;;;;;5.43;2.15;;;17.30;96.70;;;;;;5063838;28;20057;-88
2022/05/16 02:11:29;;;;;;;3.25;2.05;;;17.20;96.70;;;;;;5051746;28;20067;-87
2022/05/16 02:13:57;;;;;;;5.65;2.10;;;17.20;96.70;;;;;;5068061;28;20045;-87
2022/05/16 02:16:26;;;;;;;3.17;1.73;;;17.20;96.70;;;;;;5050941;28;20044;-88
2022/05/16 02:18:54;;;;;;;3.90;2.10;;;17.20;96.70;;;;;;5069609;28;20083;-86
2022/05/16 02:26:58;;;;;;;7.57;2.33;;;17.10;96.70;;;;;;5066228;28;20140;-88
2022/05/16 02:29:26;;;;;;;4.25;2.03;;;17.10;96.70;;;;;;5067730;28;20044;-88
2022/05/16 02:31:54;;;;;;;5.05;2.33;;;17.00;96.70;;;;;;5040276;28;20063;-87
2022/05/16 02:34:22;;;;;;;3.92;2.28;;;17.00;96.70;;;;;;5047506;28;20056;-87
2022/05/16 02:36:52;;;;;;;4.90;2.45;;;16.90;96.70;;;;;;5060167;28;20041;-88
2022/05/16 02:39:22;;;;;;;3.90;2.28;;;16.80;96.70;;;;;;5066676;28;20044;-88
2022/05/16 02:41:50;;;;;;;5.00;2.00;;;16.70;96.70;;;;;;5059907;28;20045;-87
2022/05/16 02:44:19;;;;;;;6.80;2.30;;;16.70;96.70;;;;;;5044336;28;20414;-87
2022/05/16 02:46:47;;;;;;;4.00;2.05;;;16.70;96.70;;;;;;5046202;28;20067;-87
2022/05/16 02:49:21;;;;;;;3.60;2.33;;;16.60;96.70;;;;;;5065041;28;20040;-88
2022/05/16 02:51:49;;;;;;;5.10;1.88;;;16.70;96.70;;;;;;5067353;28;20049;-88
2022/05/16 02:54:18;;;;;;;3.45;2.17;;;16.70;96.70;;;;;;5063878;28;20048;-87
2022/05/16 02:56:47;;;;;;;3.38;2.08;;;16.70;96.70;;;;;;5068929;28;20041;-88
2022/05/16 02:59:16;;;;;;;6.78;2.38;;;16.50;96.70;;;;;;5062374;28;20515;-88
2022/05/16 03:01:44;;;;;;;5.05;2.25;;;16.60;96.70;;;;;;5064755;28;20041;-88
2022/05/16 03:04:13;;;;;;;5.03;2.35;;;16.50;96.70;;;;;;5061211;28;20044;-87
2022/05/16 03:06:42;;;;;;;4.38;2.30;;;16.50;96.70;;;;;;5049204;28;20037;-88
2022/05/16 03:09:11;;;;;;;5.32;2.25;;;16.60;96.70;;;;;;5050559;28;20048;-88
2022/05/16 03:11:39;;;;;;;4.85;2.15;;;16.70;96.70;;;;;;5049889;28;20071;-87
2022/05/16 03:14:08;;;;;;;7.68;2.45;;;16.60;96.70;;;;;;5057500;28;20083;-88
2022/05/16 03:16:37;;;;;;;6.90;2.00;;;16.50;96.70;;;;;;5066516;28;20045;-87
2022/05/16 03:19:05;;;;;;;3.80;2.33;;;16.40;96.70;;;;;;5065493;28;20080;-89
2022/05/16 03:21:34;;;;;;;3.83;2.03;;;16.30;96.70;;;;;;5059986;28;20048;-87
2022/05/16 03:24:03;;;;;;;6.38;2.28;;;16.50;96.70;;;;;;5056213;28;20099;-88
2022/05/16 03:26:31;;;;;;;5.75;2.10;;;16.70;96.70;;;;;;5064328;28;20052;-87
2022/05/16 03:28:59;;;;;;;4.40;2.00;;;16.40;96.70;;;;;;5061249;28;20052;-88
2022/05/16 03:31:29;;;;;;;5.03;2.00;;;16.30;96.70;;;;;;5065483;28;20060;-87
2022/05/16 03:33:57;;;;;;;5.10;1.85;;;16.20;96.70;;;;;;5050280;28;20063;-88
2022/05/16 03:36:25;;;;;;;3.85;1.92;;;16.20;96.70;;;;;;5066854;28;20134;-87
2022/05/16 03:41:41;;;;;;;5.38;1.90;;;16.30;96.70;;;;;;5062572;28;20045;-87
2022/05/16 03:44:10;;;;;;;4.68;2.22;;;16.30;96.70;;;;;;5058635;28;20048;-88
2022/05/16 03:46:40;;;;;;;4.55;2.20;;;16.40;96.70;;;;;;5046528;28;20072;-88
2022/05/16 03:49:10;;;;;;;3.67;2.08;;;16.40;96.70;;;;;;5062102;28;20090;-87
2022/05/16 03:51:38;;;;;;;3.88;2.17;;;16.50;96.70;;;;;;5050203;28;20052;-88
2022/05/16 03:54:07;;;;;;;6.30;2.58;;;16.40;96.70;;;;;;5067951;28;20127;-88
2022/05/16 03:56:35;;;;;;;8.68;2.88;;;16.40;96.70;;;;;;5049511;28;20041;-89
2022/05/16 03:59:05;;;;;;;5.55;2.50;;;16.30;96.70;;;;;;5066009;28;20049;-87
2022/05/16 04:01:33;;;;;;;4.65;2.25;;;16.40;96.70;;;;;;5055323;28;20706;-88
2022/05/16 04:04:03;;;;;;;5.55;2.67;;;16.50;96.70;;;;;;5062210;28;20044;-89
2022/05/16 04:06:34;;;;;;;5.13;2.28;;;16.60;96.70;;;;;;5063553;28;20505;-88
2022/05/16 04:09:03;;;;;;;4.30;1.88;;;16.50;96.70;;;;;;5058279;28;20052;-88
2022/05/16 04:11:31;;;;;;;6.68;2.65;;;16.40;96.70;;;;;;5062952;28;20045;-89
2022/05/16 04:13:59;;;;;;;4.00;1.80;;;16.30;96.70;;;;;;5066950;28;20171;-88
2022/05/16 04:16:28;;;;;;;4.57;1.73;;;16.10;96.70;;;;;;5060229;28;20059;-88
2022/05/16 04:18:56;;;;;;;2.28;1.60;;;16.10;96.70;;;;;;5066033;28;20106;-88
2022/05/16 04:21:26;;;;;;;3.90;1.90;;;16.00;96.70;;;;;;5058280;28;20474;-87
2022/05/16 04:23:54;;;;;;;3.47;2.15;;;15.90;96.70;;;;;;5057197;28;20072;-87
2022/05/16 04:26:23;;;;;;;4.38;2.35;;;16.10;96.70;;;;;;5060070;28;20072;-87
2022/05/16 04:29:19;;;;;;;5.28;2.20;;;16.10;96.70;;;;;;5050110;28;20098;-88
2022/05/16 04:31:50;;;;;;;4.40;2.30;;;16.10;96.70;;;;;;5060321;28;20060;-88
2022/05/16 04:34:19;;;;;;;4.25;2.05;;;16.40;96.70;;;;;;5054079;28;20456;-88
2022/05/16 04:36:49;;;;;;;7.75;2.38;;;16.30;96.70;;;;;;5068548;28;20040;-87
2022/05/16 04:39:17;;;;;;;5.28;2.78;;;16.30;96.70;;;;;;5042908;28;20041;-88
2022/05/16 04:44:36;;;;;;;4.00;2.20;;;16.20;96.70;;;;;;5064372;28;20131;-88
2022/05/16 04:47:06;;;;;;;5.03;2.40;;;16.20;96.70;;;;;;5066392;28;20521;-89
2022/05/16 04:49:35;;;;;;;4.18;2.15;;;16.20;96.70;;;;;;5056775;28;20044;-89
2022/05/16 04:52:05;;;;;;;6.35;2.35;;;16.20;96.70;;;;;;5053259;28;20808;-90
2022/05/16 04:54:33;;;;;;;4.10;2.22;;;16.30;96.70;;;;;;5066455;28;20136;-86
2022/05/16 04:57:02;;;;;;;4.00;2.35;;;16.30;96.70;;;;;;5054975;28;20522;-89
2022/05/16 04:59:31;;;;;;;4.70;2.20;;;16.30;96.70;;;;;;5048476;28;20045;-89
2022/05/16 05:02:01;;;;;;;6.10;2.28;;;16.30;96.70;;;;;;5050833;28;20482;-88
2022/05/16 05:04:29;;;;;;;3.70;2.00;;;16.50;96.70;;;;;;5053977;28;20052;-88
2022/05/16 05:06:57;;;;;;;5.68;2.17;;;16.50;96.70;;;;;;5053494;28;20056;-88
2022/05/16 05:09:27;;;;;;;4.93;2.45;;;16.50;96.70;;;;;;5037446;28;20048;-89
2022/05/16 05:14:42;;;;;;;6.90;3.22;;;16.40;96.70;;;;;;5069303;28;20045;-90
2022/05/16 05:17:16;;;;;;;7.30;3.33;;;16.40;96.70;;;;;;5061753;28;20056;-89
2022/05/16 05:19:44;;;;;;;5.93;2.45;;;16.40;96.70;;;;;;5045865;28;20056;-90
2022/05/16 05:22:13;;;;;;;3.90;2.50;;;16.50;96.70;;;;;;5063355;28;20094;-89
2022/05/16 05:24:43;;;;;;;5.28;2.63;;;16.30;96.70;;;;;;5050267;28;20048;-89
2022/05/16 05:27:11;;;;;;;6.75;3.00;;;16.10;96.70;;;;;;5069270;28;20071;-89
2022/05/16 05:29:39;;;;;;;6.43;3.03;;;16.20;96.70;;;;;;5054110;28;20037;-90
2022/05/16 05:32:09;;;;;;;4.88;3.30;;;16.50;96.70;;;;;;5047947;28;20053;-90
2022/05/16 05:34:38;;;;;;;5.38;2.63;;;16.60;96.70;;;;;;5048819;28;20052;-90
2022/05/16 05:37:07;;;;;;;5.80;2.97;;;16.70;96.70;;;;;;5069196;28;20048;-88
2022/05/16 05:39:39;;;;;;;5.88;3.30;;;16.80;96.70;;;;;;5059358;28;20090;-89
2022/05/16 05:42:13;;;;;;;9.57;3.20;;;16.90;96.70;;;;;;5066569;28;20048;-89
2022/05/16 05:44:41;;;;;;;7.88;3.35;;;17.10;96.70;;;;;;5054566;28;20033;-91
2022/05/16 05:47:11;;;;;;;10.90;3.80;;;17.10;96.70;;;;;;5067911;28;20064;-88
2022/05/16 05:49:40;;;;;;;6.80;3.25;;;17.20;96.70;;;;;;5063817;28;20060;-90
2022/05/16 05:52:08;;;;;;;7.30;3.05;;;17.20;96.70;;;;;;5048842;28;20045;-88
2022/05/16 05:54:43;;;;;;;7.05;3.70;;;17.20;96.70;;;;;;5058804;28;20512;-90
2022/05/16 05:57:12;;;;;;;8.45;4.35;;;17.30;96.70;;;;;;5067395;28;20055;-90
2022/05/16 05:59:41;;;;;;;11.25;3.97;;;17.30;96.70;;;;;;5066883;28;20047;-89
2022/05/16 06:02:10;;;;;;;8.75;3.83;;;17.50;96.70;;;;;;5052166;28;20037;-88
2022/05/16 06:04:38;;;;;;;8.55;4.38;;;17.30;96.70;;;;;;5067578;28;20040;-88
2022/05/16 06:07:07;;;;;;;11.10;4.13;;;17.20;96.70;;;;;;5066170;28;20505;-90
2022/05/16 06:09:35;;;;;;;11.32;4.20;;;17.20;96.70;;;;;;5047226;28;20094;-90
2022/05/16 06:12:05;;;;;;;11.10;4.72;;;17.40;96.70;;;;;;5065626;28;20053;-90
2022/05/16 06:14:45;;;;;;;6.80;3.88;;;17.50;96.70;;;;;;5063196;28;20083;-86
2022/05/16 06:17:13;;;;;;;6.90;4.40;;;17.40;96.70;;;;;;5042778;28;20239;-89
2022/05/16 06:19:41;;;;;;;8.40;4.50;;;17.40;96.70;;;;;;5052030;28;20513;-87
2022/05/16 06:22:09;;;;;;;11.25;4.93;;;17.50;96.70;;;;;;5040362;28;20052;-88
2022/05/16 06:27:28;;;;;;;8.13;4.97;;;17.70;96.70;;;;;;5065737;28;20498;-87
2022/05/16 06:29:58;;;;;;;9.98;4.28;;;17.80;96.70;;;;;;5068369;28;20313;-88
2022/05/16 06:32:26;;;;;;;7.30;3.80;;;17.90;96.70;;;;;;5048773;28;20152;-88
2022/05/16 06:34:55;;;;;;;8.95;4.18;;;18.00;96.70;;;;;;5061096;28;20047;-88
2022/05/16 06:37:23;;;;;;;5.70;3.92;;;18.20;96.70;;;;;;5067001;28;20048;-86
2022/05/16 06:39:51;;;;;;;9.70;4.68;;;18.20;96.70;;;;;;5068046;28;20723;-87
2022/05/16 06:42:19;;;;;;;8.35;4.13;;;18.30;96.70;;;;;;5058606;28;20094;-87
2022/05/16 06:44:47;;;;;;;9.02;4.20;;;18.30;96.70;;;;;;5067944;28;20371;-86
2022/05/16 06:47:17;;;;;;;9.70;4.85;;;18.40;96.70;;;;;;5062513;28;20084;-86
2022/05/16 06:49:45;;;;;;;10.50;4.60;;;18.40;96.70;;;;;;5050827;28;20148;-86
2022/05/16 06:52:14;;;;;;;9.57;4.18;;;18.40;96.70;;;;;;5056962;28;20041;-86
2022/05/16 06:54:43;;;;;;;9.48;4.45;;;18.40;96.70;;;;;;5060410;28;20048;-86
2022/05/16 06:57:11;;;;;;;10.95;4.65;;;18.40;96.70;;;;;;5068389;28;20040;-87
2022/05/16 06:59:39;;;;;;;8.25;4.57;;;18.50;96.70;;;;;;5062491;28;20040;-85
2022/05/16 07:02:08;;;;;;;7.50;4.72;;;18.50;96.70;;;;;;5055399;28;20048;-81
2022/05/16 07:04:39;;;;;;;9.15;5.05;;;18.50;96.70;;;;;;5064033;28;20540;-84
2022/05/16 07:07:18;;;;;;;7.90;4.90;;;18.50;96.70;;;;;;5054901;28;20048;-85
2022/05/16 07:09:46;;;;;;;6.60;4.20;;;18.60;96.70;;;;;;5058283;28;20516;-85
2022/05/16 07:12:15;;;;;;;7.47;4.50;;;18.60;96.70;;;;;;5056042;28;20040;-84
2022/05/16 07:14:43;;;;;;;7.75;4.68;;;18.60;96.70;;;;;;5065062;28;20494;-84
2022/05/16 07:17:11;;;;;;;7.55;3.88;;;18.70;96.70;;;;;;5058096;28;20138;-82
2022/05/16 07:19:41;;;;;;;6.25;4.00;;;18.70;96.70;;;;;;5061858;28;20060;-81
2022/05/16 07:22:11;;;;;;;8.05;5.20;;;18.80;96.70;;;;;;5060702;28;20056;-80
2022/05/16 07:24:40;;;;;;;11.90;5.47;;;18.80;96.70;;;;;;5062798;28;20051;-83
2022/05/16 07:29:55;;;;;;;8.20;5.75;;;19.00;96.70;;;;;;5049131;28;20075;-83
2022/05/16 07:32:31;;;;;;;6.32;4.75;;;19.10;96.70;;;;;;5055409;28;20049;-83
2022/05/16 07:35:03;;;;;;;8.30;5.45;;;19.10;96.70;;;;;;5060926;28;20041;-82
2022/05/16 07:37:31;;;;;;;8.25;4.85;;;19.30;96.70;;;;;;5064065;28;20040;-83
2022/05/16 07:40:00;;;;;;;9.38;5.28;;;19.40;96.70;;;;;;5066672;28;20044;-83
2022/05/16 07:42:28;;;;;;;10.35;5.07;;;19.50;96.70;;;;;;5065411;28;20075;-77
2022/05/16 07:45:00;;;;;;;10.55;5.95;;;19.50;96.70;;;;;;5058836;28;20091;-82
2022/05/16 07:47:30;;;;;;;9.13;5.28;;;19.60;96.70;;;;;;5044912;28;20057;-82
2022/05/16 07:49:58;;;;;;;7.72;4.97;;;19.60;96.70;;;;;;5063430;28;20136;-81
2022/05/16 07:52:29;;;;;;;7.88;5.20;;;19.70;96.70;;;;;;5051319;28;20135;-81
2022/05/16 07:54:58;;;;;;;8.18;4.72;;;19.70;96.70;;;;;;5041557;28;20191;-82
2022/05/16 07:57:26;;;;;;;12.68;5.97;;;19.80;96.70;;;;;;5050156;28;20108;-82
2022/05/16 07:59:54;;;;;;;9.45;4.80;;;19.90;96.70;;;;;;5037512;28;20033;-79
2022/05/16 08:02:23;;;;;;;10.43;4.55;;;19.90;96.70;;;;;;5051058;28;20037;-82
2022/05/16 08:04:51;;;;;;;9.82;4.35;;;20.00;96.70;;;;;;5064857;28;20056;-81
2022/05/16 08:07:19;;;;;;;8.27;4.13;;;20.10;96.70;;;;;;5061391;28;20045;-83
2022/05/16 08:12:39;;;;;;;9.23;5.28;;;20.10;96.70;;;;;;5066334;28;20072;-81
2022/05/16 08:15:09;;;;;;;8.75;4.55;;;20.20;96.70;;;;;;5069308;28;20543;-80
2022/05/16 08:17:37;;;;;;;8.02;3.65;;;20.30;96.70;;;;;;5053268;28;20037;-83
2022/05/16 08:20:07;;;;;;;8.25;3.60;;;20.30;96.70;;;;;;5063146;28;20041;-83
2022/05/16 08:22:36;;;;;;;8.07;4.25;;;20.40;96.70;;;;;;5056307;28;20077;-81
2022/05/16 08:25:06;;;;;;;8.05;4.50;;;20.50;96.70;;;;;;5067115;28;20135;-82
2022/05/16 08:27:34;;;;;;;7.18;3.90;;;20.60;96.70;;;;;;5068881;28;20059;-83
2022/05/16 08:30:03;;;;;;;5.85;3.80;;;20.60;96.70;;;;;;5062030;28;20040;-82
2022/05/16 08:32:32;;;;;;;7.88;3.95;;;20.60;96.70;;;;;;5047544;28;20056;-82
2022/05/16 08:35:05;;;;;;;6.32;3.88;;;20.70;96.70;;;;;;5060535;28;20041;-86
2022/05/16 08:40:23;;;;;;;8.25;3.85;;;20.90;96.70;;;;;;5055113;28;20047;-82
2022/05/16 08:42:56;;;;;;;8.40;4.38;;;21.10;96.70;;;;;;5064313;28;20049;-82
2022/05/16 08:45:31;;;;;;;8.90;4.47;;;21.10;96.70;;;;;;5063561;28;20044;-82
2022/05/16 08:48:10;;;;;;;9.00;4.47;;;21.10;96.70;;;;;;5047894;28;20064;-82
2022/05/16 08:50:42;;;;;;;7.93;4.18;;;21.20;96.70;;;;;;5050243;28;20148;-83
2022/05/16 08:53:15;;;;;;;7.88;4.53;;;21.30;96.70;;;;;;5063717;28;20070;-82
2022/05/16 08:55:49;;;;;;;15.35;5.90;;;21.40;96.70;;;;;;5066471;28;20147;-83
2022/05/16 08:58:27;;;;;;;10.68;5.38;;;21.50;96.70;;;;;;5069761;28;20040;-82
2022/05/16 09:01:00;;;;;;;9.98;4.88;;;21.60;96.70;;;;;;5062951;28;20049;-82
2022/05/16 09:03:36;;;;;;;9.82;4.65;;;21.60;96.70;;;;;;5068407;28;20525;-83
2022/05/16 09:06:13;;;;;;;11.83;4.60;;;21.70;96.70;;;;;;5067972;28;20394;-83
2022/05/16 09:08:49;;;;;;;9.05;5.25;;;21.90;96.70;;;;;;5056110;28;20065;-82
2022/05/16 09:11:25;;;;;;;10.20;5.18;;;21.80;96.70;;;;;;5068402;28;20052;-82
2022/05/16 09:13:57;;;;;;;10.27;5.25;;;21.80;96.70;;;;;;5066574;28;20041;-83
2022/05/16 09:16:37;;;;;;;9.35;5.00;;;22.00;96.70;;;;;;5066454;28;20410;-81
2022/05/16 09:19:19;;;;;;;10.48;4.60;;;22.10;96.70;;;;;;5063389;28;20762;-81
2022/05/16 09:21:55;;;;;;;9.75;4.45;;;22.20;96.70;;;;;;5064070;28;20068;-81
2022/05/16 09:24:28;;;;;;;6.20;3.47;;;22.30;96.70;;;;;;5059690;28;20045;-82
2022/05/16 09:27:03;;;;;;;8.95;4.18;;;22.50;96.70;;;;;;5068677;28;20044;-82
2022/05/16 09:29:37;;;;;;;7.30;3.80;;;22.60;96.70;;;;;;5043182;28;20515;-82
2022/05/16 09:32:09;;;;;;;6.72;3.47;;;22.60;96.70;;;;;;5068660;28;20056;-82
2022/05/16 09:34:38;;;;;;;7.57;3.80;;;22.70;96.70;;;;;;5058509;28;20049;-83
2022/05/16 09:37:06;;;;;;;5.97;2.88;;;22.80;96.70;;;;;;5051364;28;20051;-83
2022/05/16 09:39:36;;;;;;;8.45;3.72;;;22.80;96.70;;;;;;5051022;28;20767;-78
2022/05/16 09:42:19;;;;;;;8.13;4.00;;;22.90;96.70;;;;;;5065604;28;20051;-81
2022/05/16 09:44:56;;;;;;;6.97;3.67;;;23.00;96.70;;;;;;5057925;28;20098;-80
2022/05/16 09:47:35;;;;;;;7.75;3.38;;;23.00;96.70;;;;;;5055921;28;20070;-80
2022/05/16 09:50:14;;;;;;;8.05;3.25;;;23.00;96.70;;;;;;5057289;28;20110;-81
2022/05/16 09:52:46;;;;;;;6.80;3.50;;;23.20;96.70;;;;;;5061581;28;20561;-80
2022/05/16 09:55:24;;;;;;;6.53;3.35;;;23.20;96.70;;;;;;5064358;28;20498;-80
2022/05/16 09:57:58;;;;;;;7.70;3.00;;;23.30;96.70;;;;;;5041140;28;20056;-82
2022/05/16 10:00:40;;;;;;;9.48;2.50;;;23.50;96.70;;;;;;5046005;28;20075;-79
2022/05/16 10:03:22;;;;;;;9.93;3.00;;;23.70;96.70;;;;;;5043729;28;20049;-83
2022/05/16 10:05:52;;;;;;;6.15;2.60;;;23.80;96.70;;;;;;5060985;28;20136;-79
2022/05/16 10:08:26;;;;;;;5.32;2.13;;;23.80;96.70;;;;;;5059801;28;20036;-83
2022/05/16 10:10:57;;;;;;;8.75;2.38;;;23.90;96.70;;;;;;5050265;28;20052;-83
2022/05/16 10:13:26;;;;;;;8.55;2.58;;;24.00;96.70;;;;;;5062415;28;20053;-81
2022/05/16 10:15:57;;;;;;;4.57;2.20;;;24.00;96.70;;;;;;5056472;28;20080;-79
2022/05/16 10:18:28;;;;;;;7.45;2.70;;;24.10;96.70;;;;;;5047420;28;20409;-80
2022/05/16 10:21:01;;;;;;;5.72;2.75;;;24.30;96.70;;;;;;5065479;28;20127;-82
2022/05/16 10:23:32;;;;;;;6.70;2.53;;;24.50;96.70;;;;;;5060767;28;20051;-83
2022/05/16 10:26:04;;;;;;;8.48;2.50;;;24.60;96.70;;;;;;5067103;28;20975;-84
2022/05/16 10:28:38;;;;;;;8.15;2.78;;;24.60;96.70;;;;;;5066443;28;20044;-84
2022/05/16 10:34:04;;;;;;;5.22;2.20;;;24.80;96.70;;;;;;5062334;28;20044;-84
2022/05/16 10:36:33;;;;;;;8.82;2.42;;;25.00;96.70;;;;;;5060557;28;20587;-83
2022/05/16 10:39:04;;;;;;;6.32;2.42;;;25.20;96.70;;;;;;5061566;28;20063;-84
2022/05/16 10:41:37;;;;;;;6.00;2.58;;;25.10;96.70;;;;;;5063718;28;20071;-84
2022/05/16 10:44:17;;;;;;;5.30;2.30;;;25.20;96.70;;;;;;5068420;28;20072;-84
2022/05/16 10:46:59;;;;;;;5.78;2.45;;;25.40;96.70;;;;;;5062071;28;20059;-84
2022/05/16 10:49:34;;;;;;;5.65;2.45;;;25.60;96.70;;;;;;5066020;28;20048;-83
2022/05/16 10:52:10;;;;;;;6.85;2.67;;;25.50;96.70;;;;;;5055066;28;20146;-84
2022/05/16 10:54:38;;;;;;;6.72;2.75;;;25.60;96.70;;;;;;5066594;28;20049;-84
2022/05/16 10:57:18;;;;;;;5.45;3.05;;;25.70;96.70;;;;;;5056704;28;20043;-84
2022/05/16 11:00:06;;;;;;;5.03;2.40;;;25.70;96.70;;;;;;5040106;28;20063;-83
2022/05/16 11:03:00;;;;;;;10.80;2.55;;;25.70;96.70;;;;;;5062261;28;20044;-83
2022/05/16 11:05:39;;;;;;;6.55;2.65;;;25.80;96.70;;;;;;5038079;28;20099;-82
2022/05/16 11:08:23;;;;;;;6.63;2.60;;;25.90;96.70;;;;;;5063318;28;20053;-83
2022/05/16 11:10:56;;;;;;;8.25;2.33;;;26.00;96.70;;;;;;5045170;28;20054;-83
2022/05/16 11:13:35;;;;;;;5.55;1.90;;;26.10;95.60;;;;;;5066071;28;20049;-82
2022/05/16 11:16:10;;;;;;;6.20;2.20;;;26.20;96.50;;;;;;5060934;28;20053;-82
2022/05/16 11:18:46;;;;;;;5.53;2.30;;;26.30;96.00;;;;;;5063652;28;20048;-83
2022/05/16 11:21:31;;;;;;;7.18;2.63;;;26.50;95.60;;;;;;5065092;28;20033;-83
2022/05/16 11:24:09;;;;;;;3.50;1.80;;;26.50;96.30;;;;;;5066854;28;20037;-83
2022/05/16 11:26:43;;;;;;;4.97;2.20;;;26.50;96.30;;;;;;5058204;28;20044;-82
2022/05/16 11:29:19;;;;;;;6.47;2.53;;;26.50;95.60;;;;;;5060634;28;20041;-83
2022/05/16 11:32:00;;;;;;;6.32;1.88;;;26.80;96.70;;;;;;5064948;28;20118;-83
2022/05/16 11:34:45;;;;;;;6.57;1.90;;;26.90;96.70;;;;;;5041188;28;20056;-83
2022/05/16 11:37:19;;;;;;;4.13;2.05;;;26.70;95.80;;;;;;5037790;28;20049;-82
2022/05/16 11:39:53;;;;;;;10.13;2.58;;;26.80;95.20;;;;;;5049340;28;20075;-83
2022/05/16 11:42:28;;;;;;;6.15;2.15;;;26.90;94.40;;;;;;5065724;28;20123;-83
2022/05/16 11:45:08;;;;;;;9.77;2.67;;;27.00;94.80;;;;;;5062202;28;20060;-83
2022/05/16 11:47:44;;;;;;;5.82;2.50;;;27.00;95.20;;;;;;5060879;28;20336;-83
2022/05/16 11:50:40;;;;;;;10.13;2.90;;;27.10;95.20;;;;;;5058005;28;20574;-84
2022/05/16 11:53:26;;;;;;;7.43;2.30;;;27.10;94.70;;;;;;5062889;28;20044;-83
2022/05/16 12:01:34;;;;;;;9.25;4.93;;;27.20;96.70;;;;;;5065394;28;20044;-83
2022/05/16 12:04:13;;;;;;;7.25;4.63;;;27.30;95.90;;;;;;5058758;28;20049;-83
2022/05/16 12:06:45;;;;;;;7.85;3.22;;;27.40;96.70;;;;;;5065178;28;20041;-84
2022/05/16 12:09:24;;;;;;;6.45;3.28;;;27.30;96.70;;;;;;5065876;28;20071;-82
2022/05/16 12:11:57;;;;;;;6.45;2.90;;;27.30;96.70;;;;;;5058256;28;20037;-83
2022/05/16 12:14:32;;;;;;;8.75;3.00;;;27.30;96.70;;;;;;5065145;28;20100;-83
2022/05/16 12:17:18;;;;;;;8.05;3.40;;;27.30;96.70;;;;;;5063444;28;20059;-82
2022/05/16 12:19:49;;;;;;;5.30;3.03;;;27.30;96.70;;;;;;5032721;28;20049;-83
2022/05/16 12:22:22;;;;;;;5.35;2.67;;;27.40;96.70;;;;;;5062829;28;20139;-82
2022/05/16 12:25:09;;;;;;;8.63;3.25;;;27.40;96.70;;;;;;5046809;28;20091;-83
2022/05/16 12:27:39;;;;;;;5.68;2.97;;;27.50;96.70;;;;;;5046244;28;20148;-83
2022/05/16 12:30:10;;;;;;;8.98;3.10;;;27.70;96.70;;;;;;5068636;28;20048;-84
2022/05/16 12:32:53;;;;;;;6.38;2.40;;;27.70;96.70;;;;;;5035144;28;20053;-83
2022/05/16 12:35:38;;;;;;;9.63;2.58;;;27.50;96.70;;;;;;5056710;28;20056;-79
2022/05/16 12:38:09;;;;;;;6.15;2.60;;;27.50;96.50;;;;;;5052978;28;20045;-80
2022/05/16 12:41:10;;;;;;;8.75;2.63;;;27.50;96.70;;;;;;5037111;28;20139;-80
2022/05/16 12:44:00;;;;;;;5.22;2.47;;;27.30;96.70;;;;;;5059652;28;20542;-81
2022/05/16 12:47:04;;;;;;;5.88;2.35;;;27.40;96.70;;;;;;5061057;28;20092;-80
2022/05/16 12:49:46;;;;;;;5.70;2.55;;;27.50;96.50;;;;;;5049745;28;20045;-82
2022/05/16 12:52:41;;;;;;;6.93;2.40;;;27.70;96.70;;;;;;5047485;28;20072;-79
2022/05/16 12:55:42;;;;;;;7.53;2.80;;;27.60;96.10;;;;;;5046588;28;20052;-86
2022/05/16 12:58:13;;;;;;;7.88;2.53;;;27.40;96.20;;;;;;5061399;28;20037;-84
2022/05/16 13:00:48;;;;;;;8.77;2.53;;;27.50;96.20;;;;;;5064968;28;20075;-81
2022/05/16 13:03:38;;;;;;;7.10;2.35;;;27.50;96.30;;;;;;5066835;28;20466;-79
2022/05/16 13:06:11;;;;;;;7.47;2.80;;;27.50;96.30;;;;;;5059260;28;20074;-81
2022/05/16 13:08:50;;;;;;;8.05;2.55;;;27.60;96.70;;;;;;5050438;28;20040;-81
2022/05/16 13:11:25;;;;;;;5.38;2.35;;;27.80;96.70;;;;;;5064661;28;20048;-83
2022/05/16 13:14:05;;;;;;;6.30;2.40;;;27.90;95.30;;;;;;5066443;28;20045;-84
2022/05/16 13:16:36;;;;;;;7.03;2.05;;;28.00;95.90;;;;;;5059732;28;20076;-80
2022/05/16 13:19:11;;;;;;;7.53;2.15;;;28.10;94.80;;;;;;5046380;28;20055;-82
2022/05/16 13:21:42;;;;;;;6.82;2.25;;;28.20;95.40;;;;;;5065632;28;20040;-84
2022/05/16 13:24:14;;;;;;;6.57;2.40;;;28.20;95.30;;;;;;5043316;28;20168;-84
2022/05/16 13:29:53;;;;;;;;;;;28.30;93.50;;;;;;5057669;28;20072;-83
2022/05/16 13:32:27;;;;;;;8.13;2.67;;;28.40;92.90;;;;;;5067969;28;19925;-84
2022/05/16 13:34:57;;;;;;;4.43;1.73;;;28.50;92.10;;;;;;5067584;28;20048;-86
2022/05/16 13:37:29;;;;;;;6.22;2.10;;;28.60;92.90;;;;;;5068039;28;20052;-81
2022/05/16 13:40:06;;;;;;;7.05;2.30;;;28.90;93.00;;;;;;5067094;28;20417;-81
2022/05/16 13:42:37;;;;;;;4.18;2.17;;;28.90;91.30;;;;;;5060934;28;20045;-82
2022/05/16 13:45:08;;;;;;;5.45;1.95;;;28.80;91.40;;;;;;5054477;28;20033;-81
2022/05/16 13:47:40;;;;;;;7.25;2.22;;;28.70;90.60;;;;;;5064469;28;20047;-82
2022/05/16 13:50:23;;;;;;;6.18;2.25;;;29.00;91.40;;;;;;5061896;28;20222;-82